Latest Weather Observations for Maria Island

IDT60801

Issued at 7:03 pm EDT Tuesday 31 March 2015 (issued every 30 minutes, with the page automatically refreshed every 10 minutes)

About weather observations | Map of weather stations | Latest weather observations for TAS | Other Formats
Station Details ID: 092124 Name: MARIA ISLAND (POINT LESUEUR) Lat: -42.66 Lon: 148.02 Height: 28.0 m
Data from the previous 72 hours. | See also: Recent months at Maria Island
Date/Time
EDT
Temp
°C
App
Temp
°C
Dew
Point
Rel
Hum
%
Delta-T
°C
Wind Press
QNH
hPa
Press
MSL
hPa
Rain
since 9 am
mm
Dir
 
Spd
km/h
Gust
km/h
Spd
kts
Gust
kts
31/07:00pm 17.1 18.4 14.0 82 1.8 CALM 0 2 0 1 1019.7 1019.7 0.0
31/06:30pm 17.6 17.7 13.9 79 2.1 NNE 6 6 3 3 1019.6 1019.6 0.0
31/06:00pm 18.3 17.6 13.2 72 2.9 N 9 11 5 6 1019.4 1019.4 0.0
31/05:30pm 17.8 15.4 14.3 80 2.0 N 20 24 11 13 1019.5 1019.5 0.0
31/05:00pm 18.2 15.4 14.3 78 2.2 N 22 26 12 14 1019.5 1019.5 0.0
31/04:30pm 18.8 16.5 14.1 74 2.7 N 19 20 10 11 1019.7 1019.7 0.0
31/04:00pm 18.8 16.2 13.2 70 3.2 N 19 20 10 11 1019.8 1019.8 0.0
31/03:30pm 19.1 16.9 13.3 69 3.3 N 17 19 9 10 1020.1 1020.1 0.0
31/03:00pm 18.7 16.4 13.1 70 3.2 N 17 20 9 11 1020.3 1020.3 0.0
31/02:30pm 18.7 15.9 12.7 68 3.4 N 19 20 10 11 1020.8 1020.8 0.0
31/02:00pm 18.5 15.6 12.9 70 3.1 N 20 22 11 12 1021.0 1021.0 0.0
31/01:30pm 19.0 16.6 12.7 67 3.5 N 17 20 9 11 1021.5 1021.5 0.0
31/01:00pm 18.3 15.8 11.1 63 3.9 N 15 17 8 9 1021.8 1021.8 0.0
31/12:30pm 17.7 14.6 10.3 62 3.9 N 17 20 9 11 1022.1 1022.1 0.0
31/12:00pm 17.4 15.1 10.5 64 3.7 NNW 13 15 7 8 1022.5 1022.5 0.0
31/11:30am 17.0 13.8 10.1 64 3.6 NNW 17 20 9 11 1022.9 1022.9 0.0
31/11:00am 16.3 14.0 10.4 68 3.1 N 13 17 7 9 1023.5 1023.5 0.0
31/10:30am 16.1 12.5 10.0 67 3.2 NNW 19 20 10 11 1023.6 1023.6 0.0
31/10:00am 15.9 13.0 11.1 73 2.6 N 17 19 9 10 1023.6 1023.6 0.0
31/09:30am 14.5 11.3 9.9 74 2.4 N 17 19 9 10 1023.8 1023.8 0.0
31/09:00am 13.9 10.9 10.7 81 1.7 N 17 22 9 12 1023.7 1023.7 0.0
31/08:30am 13.3 11.3 10.3 82 1.6 N 11 17 6 9 1023.8 1023.8 0.0
31/08:00am 12.1 11.0 9.8 86 1.2 NNE 6 7 3 4 1023.6 1023.6 0.0
31/07:30am 11.8 10.5 9.2 84 1.3 NW 6 7 3 4 1023.4 1023.4 0.0
31/07:00am 12.0 10.5 9.2 83 1.4 NNW 7 9 4 5 1023.0 1023.0 0.0
31/06:30am 11.6 10.2 9.7 88 1.0 N 7 9 4 5 1022.9 1022.9 0.0
31/06:00am 12.1 10.5 8.8 80 1.6 N 7 9 4 5 1022.7 1022.7 0.0
31/05:30am 11.9 10.7 9.6 86 1.2 WNW 6 9 3 5 1022.7 1022.7 0.0
31/05:00am 12.2 11.1 9.8 85 1.2 N 6 6 3 3 1022.3 1022.3 0.0
31/04:30am 12.3 11.2 9.9 85 1.2 N 6 6 3 3 1022.4 1022.4 0.0
31/04:00am 12.3 11.4 10.5 89 0.9 N 6 7 3 4 1022.5 1022.5 0.0
31/03:30am 12.7 11.8 9.3 80 1.7 N 4 6 2 3 1022.7 1022.7 0.0
31/03:00am 12.1 10.7 9.5 84 1.3 W 7 9 4 5 1022.8 1022.8 0.0
31/02:30am 12.1 11.4 10.2 88 1.0 NW 4 7 2 4 1023.0 1023.0 0.0
31/02:00am 12.2 11.0 10.4 89 0.9 WNW 7 11 4 6 1022.9 1022.9 0.0
31/01:30am 12.9 12.6 11.6 92 0.7 W 4 7 2 4 1022.8 1022.8 0.0
31/01:00am 13.4 13.4 12.3 93 0.6 N 4 6 2 3 1022.8 1022.8 0.0
31/12:30am 13.9 13.8 12.1 89 1.0 NNW 4 7 2 4 1022.8 1022.8 0.0
 
Date/Time
EDT
Temp
°C
App
Temp
°C
Dew
Point
Rel
Hum
%
Delta-T
°C
Wind Press
QNH
hPa
Press
MSL
hPa
Rain
since 9 am
mm
Dir
 
Spd
km/h
Gust
km/h
Spd
kts
Gust
kts
30/11:30pm 14.1 13.7 12.5 90 0.9 ENE 6 7 3 4 1023.0 1023.0 0.0
30/11:00pm 14.5 14.1 12.5 88 1.1 SE 6 7 3 4 1022.9 1022.9 0.0
30/10:30pm 15.0 15.9 12.9 87 1.2 CALM 0 0 0 0 1023.0 1023.0 0.0
30/10:00pm 14.9 15.7 12.6 86 1.3 CALM 0 0 0 0 1022.8 1022.8 0.0
30/09:30pm 15.1 15.6 12.8 86 1.3 ENE 2 4 1 2 1022.6 1022.6 0.0
30/09:00pm 15.1 16.0 12.8 86 1.3 CALM 0 2 0 1 1022.3 1022.3 0.0
30/08:30pm 15.3 15.5 13.0 86 1.3 SSE 4 6 2 3 1021.7 1021.7 0.0
30/08:00pm 15.4 13.5 13.1 86 1.3 SSE 15 20 8 11 1021.3 1021.3 0.0
30/07:30pm 15.8 12.3 13.5 86 1.3 S 24 28 13 15 1020.4 1020.4 0.0
30/07:00pm 16.8 13.9 13.9 83 1.6 S 22 28 12 15 1019.9 1019.9 0.0
30/06:39pm 17.6 15.1 13.5 77 2.3 SSW 19 30 10 16 1019.5 1019.5 0.0
30/06:30pm 18.5 17.7 11.8 65 3.7 S 7 11 4 6 1019.5 1019.5 0.0
30/06:00pm 19.3 18.7 11.8 62 4.1 ESE 6 9 3 5 1018.8 1018.8 0.0
30/05:30pm 19.8 18.7 11.8 60 4.4 ESE 9 13 5 7 1018.3 1018.3 0.0
30/05:00pm 20.1 18.2 11.8 59 4.6 ESE 13 15 7 8 1017.9 1017.9 0.0
30/04:30pm 19.9 18.7 11.7 59 4.5 ESE 9 13 5 7 1017.8 1017.8 0.0
30/04:00pm 20.3 19.9 11.0 55 5.1 NE 4 6 2 3 1017.8 1017.8 0.0
30/03:30pm 20.9 18.6 11.8 56 5.1 N 15 20 8 11 1017.6 1017.6 0.0
30/03:00pm 20.2 18.0 12.2 60 4.5 N 15 19 8 10 1017.5 1017.5 0.0
30/02:30pm 19.8 18.0 12.1 61 4.3 NNW 13 19 7 10 1017.6 1017.6 0.0
30/02:00pm 21.4 16.2 10.3 49 6.0 W 28 35 15 19 1017.5 1017.5 0.0
30/01:30pm 21.3 15.8 10.5 50 5.9 W 30 39 16 21 1017.8 1017.8 0.0
30/01:00pm 20.7 17.5 11.9 57 4.9 WNW 20 28 11 15 1018.0 1018.0 0.0
30/12:30pm 19.3 18.8 10.8 58 4.6 NNE 4 9 2 5 1018.4 1018.4 0.0
30/12:00pm 18.8 17.8 10.9 60 4.3 NNE 7 9 4 5 1018.6 1018.6 0.0
30/11:30am 17.8 15.3 11.1 65 3.6 NNE 15 19 8 10 1018.7 1018.7 0.0
30/11:00am 17.4 15.0 11.4 68 3.3 NNE 15 19 8 10 1018.7 1018.7 0.0
30/10:30am 17.2 15.1 11.2 68 3.2 N 13 15 7 8 1018.7 1018.7 0.0
30/10:00am 17.1 15.6 10.7 66 3.4 N 9 13 5 7 1018.5 1018.5 0.0
30/09:30am 16.5 13.6 9.7 64 3.6 N 15 17 8 9 1018.3 1018.3 0.0
30/09:00am 16.0 13.5 9.7 66 3.3 N 13 17 7 9 1018.1 1018.1 0.2
30/08:30am 15.4 13.2 9.3 67 3.1 NW 11 15 6 8 1018.0 1018.0 0.2
30/08:00am 15.5 13.3 9.2 66 3.2 NNW 11 15 6 8 1017.7 1017.7 0.2
30/07:30am 15.4 12.6 8.4 63 3.5 NW 13 20 7 11 1017.3 1017.3 0.2
30/07:00am 15.1 13.0 9.7 70 2.8 NNW 11 15 6 8 1017.0 1017.0 0.2
30/06:30am 14.7 12.5 10.9 78 2.0 N 13 17 7 9 1016.8 1016.8 0.2
30/06:00am 15.0 12.5 11.2 78 2.0 N 15 19 8 10 1016.7 1016.7 0.2
30/05:30am 14.0 12.9 11.9 87 1.1 NNE 9 13 5 7 1016.6 1016.6 0.2
30/05:00am 14.7 11.9 11.5 81 1.7 N 17 24 9 13 1016.6 1016.6 0.2
30/04:30am 14.6 11.6 11.9 84 1.5 N 19 20 10 11 1016.6 1016.6 0.2
30/04:00am 14.6 11.8 12.5 87 1.1 N 19 20 10 11 1016.6 1016.6 0.2
30/03:30am 14.7 12.2 12.4 86 1.3 N 17 20 9 11 1016.6 1016.6 0.2
30/03:00am 14.1 12.9 12.8 92 0.7 NNW 11 13 6 7 1016.8 1016.8 0.2
30/02:30am 14.0 12.8 12.7 92 0.7 NNW 11 13 6 7 1017.1 1017.1 0.2
30/02:00am 14.1 12.9 12.7 91 0.8 NNW 11 13 6 7 1017.5 1017.5 0.2
30/01:30am 14.5 12.4 12.4 87 1.1 N 15 19 8 10 1017.6 1017.6 0.2
30/01:00am 14.3 12.1 12.2 87 1.1 N 15 17 8 9 1017.6 1017.6 0.2
30/12:30am 14.1 13.0 12.0 87 1.1 NNW 9 11 5 6 1017.7 1017.7 0.2
30/12:00am 13.9 13.4 11.9 88 1.1 N 6 7 3 4 1017.9 1017.9 0.2
 
Date/Time
EDT
Temp
°C
App
Temp
°C
Dew
Point
Rel
Hum
%
Delta-T
°C
Wind Press
QNH
hPa
Press
MSL
hPa
Rain
since 9 am
mm
Dir
 
Spd
km/h
Gust
km/h
Spd
kts
Gust
kts
29/11:30pm 13.7 14.3 11.8 88 1.0 CALM 0 2 0 1 1018.1 1018.1 0.2
29/11:00pm 13.9 13.3 11.8 87 1.1 N 6 11 3 6 1018.3 1018.3 0.2
29/10:30pm 14.1 13.4 12.1 88 1.1 WNW 7 9 4 5 1018.3 1018.3 0.2
29/10:00pm 13.8 13.1 11.3 85 1.3 ENE 6 9 3 5 1018.5 1018.5 0.2
29/09:30pm 13.5 12.7 11.2 86 1.2 NE 6 9 3 5 1018.4 1018.4 0.2
29/09:00pm 13.5 12.6 11.2 86 1.2 ENE 7 9 4 5 1018.1 1018.1 0.2
29/08:30pm 13.3 11.5 11.0 86 1.2 ENE 11 15 6 8 1017.7 1017.7 0.2
29/08:00pm 13.5 11.7 10.9 84 1.4 E 11 15 6 8 1017.3 1017.3 0.2
29/07:30pm 13.5 11.4 11.0 85 1.3 ESE 13 17 7 9 1017.1 1017.1 0.2
29/07:00pm 13.4 10.9 10.9 85 1.3 ESE 15 19 8 10 1016.7 1016.7 0.2
29/06:30pm 13.6 10.8 11.3 86 1.2 ESE 17 20 9 11 1016.4 1016.4 0.2
29/06:00pm 13.7 10.5 11.2 85 1.3 ESE 19 24 10 13 1016.0 1016.0 0.2
29/05:30pm 13.7 10.3 11.4 86 1.2 SE 20 24 11 13 1015.8 1015.8 0.2
29/05:00pm 13.5 10.3 11.9 90 0.9 ESE 20 24 11 13 1015.6 1015.6 0.2
29/04:30pm 13.9 11.9 12.6 92 0.7 ESE 15 19 8 10 1015.4 1015.4 0.2
29/04:00pm 14.0 12.0 12.6 91 0.8 SE 15 22 8 12 1015.3 1015.2 0.2
29/03:30pm 14.2 10.8 12.6 90 0.9 SSE 22 30 12 16 1015.3 1015.2 0.0
29/03:00pm 15.5 10.0 12.6 83 1.6 S 33 39 18 21 1014.3 1014.2 0.0
29/02:30pm 18.1 14.3 12.3 69 3.2 NNW 24 32 13 17 1013.8 1013.7 0.0
29/02:00pm 18.6 15.0 11.9 65 3.7 NNW 22 26 12 14 1013.6 1013.5 0.0
29/01:30pm 18.5 14.0 11.3 63 3.9 NNW 26 33 14 18 1013.7 1013.6 0.0
29/01:00pm 18.3 13.4 11.4 64 3.8 NNW 28 33 15 18 1014.0 1013.9 0.0
29/12:30pm 17.8 13.2 9.7 59 4.3 NNW 24 32 13 17 1014.2 1014.1 0.0
29/12:00pm 18.5 13.5 11.1 62 4.0 NNW 28 35 15 19 1014.3 1014.2 0.0
29/11:30am 17.9 13.3 9.8 59 4.3 NNW 24 30 13 16 1014.6 1014.5 0.0
29/11:00am 17.0 11.5 9.2 60 4.1 WNW 28 35 15 19 1014.6 1014.5 0.0
29/10:30am 16.8 12.0 9.0 60 4.0 WNW 24 43 13 23 1014.5 1014.4 0.0
29/10:00am 14.9 7.4 9.3 69 2.9 NW 39 46 21 25 1014.3 1014.2 0.0
29/09:30am 14.3 5.7 8.7 69 2.8 NW 44 54 24 29 1013.9 1013.8 0.0
29/09:00am 13.3 5.5 8.4 72 2.4 NNW 39 46 21 25 1014.3 1014.2 0.0
29/08:30am 12.9 6.2 8.0 72 2.4 NW 33 41 18 22 1014.9 1014.8 0.0
29/08:00am 12.4 4.9 7.9 74 2.2 NW 37 46 20 25 1014.1 1014.0 0.0
29/07:30am 12.0 5.0 8.3 78 1.8 NNW 35 43 19 23 1014.1 1014.0 0.0
29/07:00am 11.8 5.1 8.1 78 1.8 NNW 33 41 18 22 1014.1 1014.0 0.0
29/06:30am 12.1 5.0 8.0 76 2.0 NNW 35 44 19 24 1014.0 1013.9 0.0
29/06:00am 12.2 5.5 8.1 76 2.0 NNW 33 43 18 23 1014.0 1013.9 0.0
29/05:30am 12.1 6.1 8.8 80 1.6 NNW 30 37 16 20 1014.0 1013.9 0.0
29/05:00am 12.4 7.5 8.3 76 2.0 NNW 24 32 13 17 1014.7 1014.6 0.0
29/04:30am 12.2 8.4 9.0 81 1.6 N 19 22 10 12 1014.7 1014.6 0.0
29/04:00am 12.2 9.5 9.0 81 1.6 NW 13 20 7 11 1014.6 1014.5 0.0
29/03:30am 12.8 7.8 9.4 80 1.7 NNW 26 35 14 19 1014.4 1014.3 0.0
29/03:00am 12.6 9.6 9.4 81 1.6 W 15 22 8 12 1015.0 1014.9 0.0
29/02:30am 12.7 7.4 9.7 82 1.5 NW 28 33 15 18 1015.1 1015.0 0.0
29/02:19am 12.6 9.0 10.0 84 1.3 NW 19 35 10 19 1015.0 1014.9 0.0
29/02:00am 11.3 9.3 8.5 83 1.4 WNW 9 13 5 7 1015.4 1015.4 0.0
29/01:30am 11.5 9.6 9.2 86 1.2 NW 9 11 5 6 1015.7 1015.7 0.0
29/01:00am 11.9 10.5 9.5 85 1.2 WNW 7 9 4 5 1015.9 1015.9 0.0
29/12:30am 12.3 11.1 10.2 87 1.1 NW 7 7 4 4 1016.0 1016.0 0.0
29/12:00am 11.6 9.9 9.9 89 0.9 WNW 9 9 5 5 1016.7 1016.7 0.0
 
Date/Time
EDT
Temp
°C
App
Temp
°C
Dew
Point
Rel
Hum
%
Delta-T
°C
Wind Press
QNH
hPa
Press
MSL
hPa
Rain
since 9 am
mm
Dir
 
Spd
km/h
Gust
km/h
Spd
kts
Gust
kts
28/11:30pm 12.0 10.7 10.1 88 1.0 WNW 7 9 4 5 1017.0 1017.0 0.0
28/11:00pm 12.3 11.0 10.0 86 1.2 WNW 7 9 4 5 1017.4 1017.4 0.0
28/10:30pm 12.6 11.0 10.3 86 1.2 NW 9 11 5 6 1017.7 1017.7 0.0
28/10:00pm 12.9 11.2 9.7 81 1.6 NW 9 13 5 7 1017.9 1017.9 0.0
28/09:30pm 12.6 11.1 9.2 80 1.7 NNE 7 9 4 5 1017.9 1017.9 0.0
28/09:00pm 12.0 10.0 8.7 80 1.6 NNE 9 11 5 6 1017.8 1017.8 0.0
28/08:30pm 12.9 10.9 8.8 76 2.1 NNE 9 11 5 6 1017.9 1017.9 0.0
28/08:00pm 13.6 11.4 9.3 75 2.2 NNE 11 15 6 8 1017.9 1017.9 0.0
28/07:30pm 13.8 10.7 8.8 72 2.5 NNE 15 17 8 9 1017.9 1017.9 0.0

Other Formats:

Comma delimited format used in spreadsheet applications
http://www.bom.gov.au/fwo/IDT60801/IDT60801.95988.axf

JavaScript Object Notation format (JSON) in row-major order
http://www.bom.gov.au/fwo/IDT60801/IDT60801.95988.json